createdAt,value
2023-03-24T00:01:28.627Z,55.16
2023-03-24T00:06:54.422Z,51.84
2023-03-24T00:12:19.046Z,52.60
2023-03-24T00:17:43.301Z,53.98
2023-03-24T00:23:08.605Z,55.65
2023-03-24T00:28:37.279Z,57.00
2023-03-24T00:34:03.166Z,58.46
2023-03-24T00:39:27.188Z,60.36
2023-03-24T00:44:54.213Z,69.54
2023-03-24T00:50:20.936Z,71.12
2023-03-24T00:55:48.512Z,66.64
2023-03-24T01:01:13.305Z,63.06
2023-03-24T01:06:38.208Z,60.67
2023-03-24T01:12:05.927Z,53.86
2023-03-24T01:17:30.023Z,51.74
2023-03-24T01:22:54.155Z,52.72
2023-03-24T01:28:24.796Z,54.18
2023-03-24T01:33:49.390Z,55.53
2023-03-24T01:39:13.101Z,56.91
2023-03-24T01:44:38.767Z,58.10
2023-03-24T01:50:05.545Z,59.19
2023-03-24T01:55:32.503Z,60.01
2023-03-24T02:00:58.463Z,69.50
2023-03-24T02:06:49.468Z,70.87
2023-03-24T02:12:14.468Z,65.99
2023-03-24T02:17:45.527Z,61.85
2023-03-24T02:23:35.009Z,53.93
2023-03-24T02:29:48.355Z,50.90
2023-03-24T02:35:36.148Z,51.70
2023-03-24T02:41:18.341Z,53.60
2023-03-24T02:46:50.163Z,55.59
2023-03-24T02:52:24.176Z,57.87
2023-03-24T02:58:01.032Z,59.80
2023-03-24T03:03:52.494Z,69.75
2023-03-24T03:09:21.847Z,70.31
2023-03-24T03:14:53.380Z,66.70
2023-03-24T03:20:23.526Z,63.48
2023-03-24T03:25:52.713Z,61.37
2023-03-24T03:31:24.095Z,55.13
2023-03-24T03:36:58.152Z,52.51
2023-03-24T03:42:23.881Z,54.06
2023-03-24T03:47:49.491Z,56.33
2023-03-24T03:53:17.760Z,58.14
2023-03-24T03:58:42.818Z,60.24
2023-03-24T04:04:30.259Z,69.10
2023-03-24T04:10:45.277Z,66.76
2023-03-24T04:16:23.432Z,62.53
2023-03-24T04:22:50.018Z,58.53
2023-03-24T04:28:16.044Z,56.10
2023-03-24T04:33:49.101Z,59.03
2023-03-24T04:39:18.530Z,61.11
2023-03-24T04:44:51.816Z,68.08
2023-03-24T04:50:46.070Z,65.46
2023-03-24T04:56:29.278Z,62.70
2023-03-24T05:02:07.787Z,58.14
2023-03-24T05:07:53.836Z,54.38
2023-03-24T05:13:19.377Z,56.94
2023-03-24T05:18:47.432Z,58.89
2023-03-24T05:24:12.952Z,66.88
2023-03-24T05:29:38.213Z,67.18
2023-03-24T05:35:04.407Z,64.79
2023-03-24T05:40:31.714Z,62.11
2023-03-24T05:46:08.176Z,60.13
2023-03-24T05:51:32.373Z,54.64
2023-03-24T05:57:02.627Z,56.64
2023-03-24T06:02:27.642Z,58.75
2023-03-24T06:07:58.934Z,67.17
2023-03-24T06:13:24.096Z,68.23
2023-03-24T06:18:52.874Z,65.37
2023-03-24T06:24:38.143Z,63.29
2023-03-24T06:30:07.226Z,61.55
2023-03-24T06:35:32.802Z,60.44
2023-03-24T06:41:03.152Z,54.93
2023-03-24T06:46:29.789Z,53.86
2023-03-24T06:51:54.652Z,57.01
2023-03-24T06:57:20.050Z,59.68
2023-03-24T07:03:04.269Z,68.38
2023-03-24T07:08:37.107Z,68.07
2023-03-24T07:14:09.906Z,65.33
2023-03-24T07:19:36.262Z,62.70
2023-03-24T07:25:20.434Z,60.92
2023-03-24T07:30:51.623Z,54.99
2023-03-24T07:36:19.427Z,53.38
2023-03-24T07:41:43.977Z,55.42
2023-03-24T07:47:29.150Z,58.32
2023-03-24T07:52:54.300Z,59.51
2023-03-24T07:58:19.051Z,67.65
2023-03-24T08:03:58.630Z,66.95
2023-03-24T08:09:44.108Z,63.45
2023-03-24T08:15:10.450Z,60.46
2023-03-24T08:25:59.014Z,52.66
2023-03-24T08:31:23.082Z,54.54
2023-03-24T08:36:47.788Z,58.05
2023-03-24T08:42:12.668Z,59.93
2023-03-24T08:47:37.709Z,63.28
2023-03-24T08:53:02.790Z,60.27
2023-03-24T08:58:27.363Z,57.20
2023-03-24T09:03:52.397Z,59.43
2023-03-24T09:09:16.836Z,60.59
2023-03-24T09:14:42.565Z,60.48
2023-03-24T09:20:12.166Z,60.71
2023-03-24T09:25:36.295Z,60.93
2023-03-24T09:31:03.197Z,60.61
2023-03-24T09:36:28.615Z,60.51
2023-03-24T09:41:56.478Z,59.67
2023-03-24T09:47:37.570Z,58.90
2023-03-24T09:53:23.166Z,58.36
2023-03-24T09:58:53.776Z,58.24
2023-03-24T10:04:21.656Z,57.22
2023-03-24T10:09:53.737Z,56.60
2023-03-24T10:15:37.108Z,57.13
2023-03-24T10:21:18.289Z,57.28
2023-03-24T10:26:55.724Z,56.60
2023-03-24T10:32:25.633Z,55.29
2023-03-24T10:37:52.728Z,54.60
2023-03-24T10:43:21.567Z,54.53
2023-03-24T10:48:48.637Z,55.22
2023-03-24T10:54:21.713Z,56.77
2023-03-24T10:59:58.270Z,57.67
2023-03-24T11:05:30.936Z,59.18
2023-03-24T11:10:56.709Z,60.06
2023-03-24T11:16:37.731Z,61.31
2023-03-24T11:22:06.109Z,61.96
2023-03-24T11:27:32.213Z,62.51
2023-03-24T11:32:58.745Z,58.55
2023-03-24T11:38:31.734Z,58.84
2023-03-24T11:44:23.073Z,61.25
2023-03-24T11:49:58.656Z,61.23
2023-03-24T11:55:42.734Z,58.10
2023-03-24T12:01:12.583Z,59.45
2023-03-24T12:06:57.317Z,60.70
2023-03-24T12:12:42.882Z,59.95
2023-03-24T12:18:16.268Z,58.91
2023-03-24T12:24:02.718Z,59.16
2023-03-24T12:29:54.870Z,57.33
2023-03-24T12:35:32.409Z,56.06
2023-03-24T12:41:25.300Z,56.02
2023-03-24T12:47:22.835Z,56.30
2023-03-24T12:58:43.362Z,55.59
2023-03-24T13:04:21.511Z,55.99
2023-03-24T13:09:46.842Z,55.75
2023-03-24T13:15:17.938Z,55.37
2023-03-24T13:20:49.987Z,55.85
2023-03-24T13:26:27.207Z,55.64
2023-03-24T13:32:24.603Z,55.40
2023-03-24T13:37:57.843Z,56.37
2023-03-24T13:43:30.041Z,56.82
2023-03-24T13:49:00.624Z,57.61
2023-03-24T13:54:28.058Z,58.08
2023-03-24T14:00:19.297Z,58.21
2023-03-24T14:06:00.096Z,57.58
2023-03-24T14:11:38.758Z,57.63
2023-03-24T14:17:07.081Z,57.45
2023-03-24T14:22:36.646Z,57.27
2023-03-24T14:28:18.200Z,57.41
2023-03-24T14:33:54.699Z,57.60
2023-03-24T14:39:28.549Z,57.74
2023-03-24T14:44:53.985Z,58.25
2023-03-24T14:50:22.880Z,58.57
2023-03-24T14:55:49.229Z,58.66
2023-03-24T15:01:15.072Z,58.79
2023-03-24T15:06:47.359Z,58.89
2023-03-24T15:12:11.884Z,58.94
2023-03-24T15:17:36.164Z,58.66
2023-03-24T15:23:09.284Z,58.13
2023-03-24T15:28:34.101Z,57.72
2023-03-24T15:34:25.581Z,58.19
2023-03-24T15:39:57.045Z,58.36
2023-03-24T15:45:51.033Z,57.86
2023-03-24T15:51:17.400Z,56.85
2023-03-24T15:56:42.799Z,56.65
2023-03-24T16:02:19.132Z,58.49
2023-03-24T16:07:43.587Z,63.34
2023-03-24T16:13:16.223Z,61.30
2023-03-24T16:18:46.600Z,61.10
2023-03-24T16:24:11.191Z,61.22
2023-03-24T16:29:37.380Z,61.18
2023-03-24T16:35:03.233Z,61.42
2023-03-24T16:40:36.677Z,61.91
2023-03-24T16:46:01.895Z,61.79
2023-03-24T16:51:27.588Z,61.80
2023-03-24T16:56:52.023Z,61.70
2023-03-24T17:02:19.927Z,61.53
2023-03-24T17:07:44.843Z,61.46
2023-03-24T17:13:08.922Z,62.02
2023-03-24T17:18:33.612Z,62.72
2023-03-24T17:23:57.598Z,62.30
2023-03-24T17:29:23.151Z,61.19
2023-03-24T17:34:48.422Z,60.63
2023-03-24T17:40:15.839Z,56.98
2023-03-24T17:45:43.337Z,57.52
2023-03-24T17:51:07.797Z,64.57
2023-03-24T17:56:32.527Z,65.47
2023-03-24T18:01:56.322Z,64.37
2023-03-24T18:07:21.400Z,64.43
2023-03-24T18:12:46.604Z,62.86
2023-03-24T18:18:10.866Z,61.63
2023-03-24T18:23:37.228Z,60.57
2023-03-24T18:29:01.424Z,60.42
2023-03-24T18:34:26.964Z,60.21
2023-03-24T18:39:51.975Z,60.56
2023-03-24T18:45:19.919Z,60.67
2023-03-24T18:50:44.189Z,60.29
2023-03-24T18:56:09.127Z,59.87
2023-03-24T19:01:33.584Z,59.90
2023-03-24T19:06:57.849Z,59.98
2023-03-24T19:12:22.808Z,59.88
2023-03-24T19:17:47.992Z,60.28
2023-03-24T19:23:33.580Z,60.68
2023-03-24T19:29:04.108Z,60.53
2023-03-24T19:34:28.744Z,60.25
2023-03-24T19:39:54.512Z,60.11
2023-03-24T19:45:21.288Z,60.00
2023-03-24T19:50:47.014Z,60.00
2023-03-24T19:56:13.509Z,59.85
2023-03-24T20:01:38.577Z,59.79
2023-03-24T20:07:03.761Z,59.68
2023-03-24T20:12:28.244Z,59.77
2023-03-24T20:17:56.501Z,63.53
2023-03-24T20:23:22.717Z,62.16
2023-03-24T20:28:48.403Z,60.40
2023-03-24T20:34:12.434Z,59.72
2023-03-24T20:39:36.833Z,59.44
2023-03-24T20:45:01.370Z,63.06
2023-03-24T20:50:28.335Z,62.61
2023-03-24T20:56:07.080Z,60.50
2023-03-24T21:01:36.485Z,59.71
2023-03-24T21:07:01.520Z,59.65
2023-03-24T21:12:25.954Z,63.30
2023-03-24T21:17:51.000Z,62.49
2023-03-24T21:23:19.211Z,60.28
2023-03-24T21:28:44.900Z,59.51
2023-03-24T21:34:09.438Z,59.66
2023-03-24T21:39:34.015Z,63.80
2023-03-24T21:44:58.174Z,62.91
2023-03-24T21:50:26.081Z,61.06
2023-03-24T21:56:05.281Z,60.22
2023-03-24T22:01:31.387Z,59.83
2023-03-24T22:06:56.725Z,59.42
2023-03-24T22:12:21.103Z,61.19
2023-03-24T22:17:45.425Z,63.73
2023-03-24T22:23:09.918Z,61.20
2023-03-24T22:28:36.568Z,59.82
2023-03-24T22:34:01.572Z,59.66
2023-03-24T22:39:26.354Z,63.62
2023-03-24T22:44:50.516Z,61.43
2023-03-24T22:50:14.837Z,59.34
2023-03-24T22:55:39.628Z,61.34
2023-03-24T23:01:06.698Z,64.17
2023-03-24T23:06:31.401Z,61.09
2023-03-24T23:11:55.514Z,59.15
2023-03-24T23:17:19.852Z,62.52
2023-03-24T23:22:43.566Z,62.54
2023-03-24T23:28:07.864Z,59.86
2023-03-24T23:33:33.430Z,59.69
2023-03-24T23:38:57.944Z,63.30
2023-03-24T23:44:21.849Z,60.68
2023-03-24T23:49:45.909Z,58.81
2023-03-24T23:55:13.473Z,61.58
